createdAt,value
2022-10-17T00:00:03.022Z,25.7300
2022-10-17T00:00:14.256Z,25.7200
2022-10-17T00:00:25.405Z,25.7200
2022-10-17T00:00:36.605Z,25.7200
2022-10-17T00:00:47.810Z,25.7200
2022-10-17T00:00:59.008Z,25.7200
2022-10-17T00:01:10.164Z,25.7200
2022-10-17T00:01:21.486Z,25.7100
2022-10-17T00:01:32.686Z,25.7100
2022-10-17T00:01:43.892Z,25.7200
2022-10-17T00:01:55.067Z,25.7200
2022-10-17T00:02:06.206Z,25.7200
2022-10-17T00:02:17.405Z,25.7200
2022-10-17T00:02:28.624Z,25.7200
2022-10-17T00:02:39.687Z,25.7200
2022-10-17T00:02:50.765Z,25.7200
2022-10-17T00:03:01.953Z,25.7200
2022-10-17T00:03:13.010Z,25.7200
2022-10-17T00:03:24.074Z,25.7200
2022-10-17T00:03:35.165Z,25.7200
2022-10-17T00:03:46.368Z,25.7200
2022-10-17T00:03:57.566Z,25.7200
2022-10-17T00:04:08.767Z,25.7200
2022-10-17T00:04:19.985Z,25.7100
2022-10-17T00:04:31.075Z,25.7100
2022-10-17T00:04:42.127Z,25.7100
2022-10-17T00:04:53.254Z,25.7000
2022-10-17T00:05:04.473Z,25.7000
2022-10-17T00:05:15.646Z,25.7000
2022-10-17T00:05:26.846Z,25.7000
2022-10-17T00:05:38.045Z,25.6900
2022-10-17T00:05:49.246Z,25.6900
2022-10-17T00:06:00.445Z,25.6900
2022-10-17T00:06:11.646Z,25.6900
2022-10-17T00:06:22.686Z,25.6900
2022-10-17T00:06:33.725Z,25.6800
2022-10-17T00:06:44.938Z,25.6800
2022-10-17T00:06:56.147Z,25.6800
2022-10-17T00:07:07.332Z,25.6800
2022-10-17T00:07:18.549Z,25.6800
2022-10-17T00:07:30.280Z,25.6900
2022-10-17T00:07:41.906Z,25.6900
2022-10-17T00:07:53.085Z,25.6800
2022-10-17T00:08:04.346Z,25.6900
2022-10-17T00:08:15.485Z,25.6800
2022-10-17T00:08:26.686Z,25.6900
2022-10-17T00:08:37.895Z,25.6900
2022-10-17T00:08:49.085Z,25.6900
2022-10-17T00:09:00.285Z,25.6900
2022-10-17T00:09:11.495Z,25.6800
2022-10-17T00:09:22.553Z,25.6800
2022-10-17T00:09:33.633Z,25.6800
2022-10-17T00:09:44.765Z,25.6800
2022-10-17T00:09:55.965Z,25.6800
2022-10-17T00:10:07.175Z,25.6800
2022-10-17T00:10:18.371Z,25.6700
2022-10-17T00:10:29.566Z,25.6700
2022-10-17T00:10:41.127Z,25.6700
2022-10-17T00:10:52.206Z,25.6600
2022-10-17T00:11:03.284Z,25.6600
2022-10-17T00:11:14.371Z,25.6600
2022-10-17T00:11:25.429Z,25.6600
2022-10-17T00:11:36.497Z,25.6700
2022-10-17T00:11:47.664Z,25.6700
2022-10-17T00:11:58.849Z,25.6700
2022-10-17T00:12:10.054Z,25.6700
2022-10-17T00:12:21.246Z,25.6800
2022-10-17T00:12:32.446Z,25.6800
2022-10-17T00:12:43.649Z,25.6800
2022-10-17T00:12:54.845Z,25.6800
2022-10-17T00:13:06.083Z,25.6700
2022-10-17T00:13:17.257Z,25.6700
2022-10-17T00:13:28.382Z,25.6700
2022-10-17T00:13:39.445Z,25.6700
2022-10-17T00:13:50.534Z,25.6700
2022-10-17T00:14:01.737Z,25.6700
2022-10-17T00:14:12.935Z,25.6700
2022-10-17T00:14:24.156Z,25.6600
2022-10-17T00:14:35.325Z,25.6600
2022-10-17T00:14:46.534Z,25.6600
2022-10-17T00:14:57.726Z,25.6600
2022-10-17T00:15:08.933Z,25.6600
2022-10-17T00:15:20.126Z,25.6600
2022-10-17T00:15:31.173Z,25.6600
2022-10-17T00:15:42.222Z,25.6600
2022-10-17T00:15:53.407Z,25.6600
2022-10-17T00:16:04.612Z,25.6600
2022-10-17T00:16:15.813Z,25.6600
2022-10-17T00:16:27.005Z,25.6600
2022-10-17T00:16:38.214Z,25.6600
2022-10-17T00:16:49.413Z,25.6600
2022-10-17T00:17:00.613Z,25.6600
2022-10-17T00:17:11.805Z,25.6600
2022-10-17T00:17:22.847Z,25.6700
2022-10-17T00:17:33.894Z,25.6700
2022-10-17T00:17:45.093Z,25.6700
2022-10-17T00:17:56.316Z,25.6600
2022-10-17T00:18:07.525Z,25.6600
2022-10-17T00:18:18.693Z,25.6600
2022-10-17T00:18:29.902Z,25.6600
2022-10-17T00:18:40.963Z,25.6600
2022-10-17T00:18:52.025Z,25.6600
2022-10-17T00:19:03.174Z,25.6600
2022-10-17T00:19:14.373Z,25.6600
2022-10-17T00:19:25.573Z,25.6600
2022-10-17T00:19:36.765Z,25.6600
2022-10-17T00:19:47.965Z,25.6600
2022-10-17T00:19:59.166Z,25.6600
2022-10-17T00:20:10.365Z,25.6600
2022-10-17T00:20:21.565Z,25.6600
2022-10-17T00:20:32.777Z,25.6600
2022-10-17T00:20:43.844Z,25.6600
2022-10-17T00:20:54.903Z,25.6600
2022-10-17T00:21:06.046Z,25.6500
2022-10-17T00:21:17.252Z,25.6600
2022-10-17T00:21:28.448Z,25.6500
2022-10-17T00:21:39.645Z,25.6500
2022-10-17T00:21:50.853Z,25.6500
2022-10-17T00:22:02.045Z,25.6500
2022-10-17T00:22:13.245Z,25.6500
2022-10-17T00:22:24.458Z,25.6500
2022-10-17T00:22:46.714Z,25.6400
2022-10-17T00:22:57.800Z,25.6400
2022-10-17T00:23:08.955Z,25.6400
2022-10-17T00:23:20.134Z,25.6400
2022-10-17T00:23:31.325Z,25.6400
2022-10-17T00:23:42.533Z,25.6400
2022-10-17T00:23:53.593Z,25.6400
2022-10-17T00:24:04.657Z,25.6400
2022-10-17T00:24:15.805Z,25.6400
2022-10-17T00:24:27.022Z,25.6400
2022-10-17T00:24:38.213Z,25.6400
2022-10-17T00:24:49.414Z,25.6400
2022-10-17T00:25:00.605Z,25.6400
2022-10-17T00:25:11.814Z,25.6400
2022-10-17T00:25:23.012Z,25.6400
2022-10-17T00:25:34.206Z,25.6300
2022-10-17T00:25:45.405Z,25.6300
2022-10-17T00:25:56.605Z,25.6300
2022-10-17T00:26:07.806Z,25.6300
2022-10-17T00:26:19.009Z,25.6400
2022-10-17T00:26:30.108Z,25.6400
2022-10-17T00:26:41.414Z,25.6400
2022-10-17T00:26:52.455Z,25.6400
2022-10-17T00:27:03.536Z,25.6400
2022-10-17T00:27:14.694Z,25.6400
2022-10-17T00:27:26.359Z,25.6400
2022-10-17T00:27:37.776Z,25.6300
2022-10-17T00:27:48.835Z,25.6300
2022-10-17T00:27:59.905Z,25.6300
2022-10-17T00:28:11.043Z,25.6300
2022-10-17T00:28:22.285Z,25.6300
2022-10-17T00:28:33.512Z,25.6400
2022-10-17T00:28:44.658Z,25.6400
2022-10-17T00:28:55.744Z,25.6400
2022-10-17T00:29:06.821Z,25.6400
2022-10-17T00:29:17.887Z,25.6500
2022-10-17T00:29:29.117Z,25.6500
2022-10-17T00:29:40.293Z,25.6500
2022-10-17T00:29:51.488Z,25.6400
2022-10-17T00:30:02.687Z,25.6400
2022-10-17T00:30:13.897Z,25.6300
2022-10-17T00:30:24.944Z,25.6300
2022-10-17T00:30:36.006Z,25.6300
2022-10-17T00:30:47.165Z,25.6300
2022-10-17T00:30:58.372Z,25.6300
2022-10-17T00:31:09.405Z,25.6200
2022-10-17T00:31:20.446Z,25.6200
2022-10-17T00:31:31.656Z,25.6200
2022-10-17T00:31:42.868Z,25.6200
2022-10-17T00:32:05.096Z,25.6200
2022-10-17T00:32:16.165Z,25.6200
2022-10-17T00:32:27.654Z,25.6200
2022-10-17T00:32:39.215Z,25.6300
2022-10-17T00:32:50.376Z,25.6200
2022-10-17T00:33:01.445Z,25.6200
2022-10-17T00:33:12.545Z,25.6200
2022-10-17T00:33:23.683Z,25.6200
2022-10-17T00:33:34.846Z,25.6200
2022-10-17T00:33:46.064Z,25.6200
2022-10-17T00:33:57.106Z,25.6200
2022-10-17T00:34:08.186Z,25.6200
2022-10-17T00:34:19.326Z,25.6200
2022-10-17T00:34:30.525Z,25.6200
2022-10-17T00:34:41.725Z,25.6200
2022-10-17T00:34:52.934Z,25.6200
2022-10-17T00:35:04.125Z,25.6200
2022-10-17T00:35:15.334Z,25.6300
2022-10-17T00:35:26.525Z,25.6300
2022-10-17T00:35:37.726Z,25.6300
2022-10-17T00:35:48.933Z,25.6300
2022-10-17T00:36:00.125Z,25.6300
2022-10-17T00:36:11.325Z,25.6300
2022-10-17T00:36:22.534Z,25.6300
2022-10-17T00:36:33.726Z,25.6300
2022-10-17T00:36:44.925Z,25.6200
2022-10-17T00:36:55.969Z,25.6200
2022-10-17T00:37:07.006Z,25.6200
2022-10-17T00:37:18.206Z,25.6200
2022-10-17T00:37:29.412Z,25.6200
2022-10-17T00:37:40.612Z,25.6200
2022-10-17T00:37:51.807Z,25.6200
2022-10-17T00:38:03.005Z,25.6200
2022-10-17T00:38:14.103Z,25.6200
2022-10-17T00:38:25.197Z,25.6200
2022-10-17T00:38:36.294Z,25.6200
2022-10-17T00:38:47.492Z,25.6200
2022-10-17T00:38:58.685Z,25.6200
2022-10-17T00:39:09.892Z,25.6200
2022-10-17T00:39:21.095Z,25.6200
2022-10-17T00:39:32.295Z,25.6200
2022-10-17T00:39:43.485Z,25.6200
2022-10-17T00:39:54.692Z,25.6200
2022-10-17T00:40:05.885Z,25.6200
2022-10-17T00:40:16.925Z,25.6300
2022-10-17T00:40:27.983Z,25.6300
2022-10-17T00:40:39.174Z,25.6300
2022-10-17T00:40:50.408Z,25.6200
2022-10-17T00:41:01.459Z,25.6200
2022-10-17T00:41:12.506Z,25.6200
2022-10-17T00:41:23.573Z,25.6200
2022-10-17T00:41:34.637Z,25.6200
2022-10-17T00:41:45.725Z,25.6200
2022-10-17T00:41:56.926Z,25.6200
2022-10-17T00:42:08.134Z,25.6200
2022-10-17T00:42:19.335Z,25.6200
2022-10-17T00:42:31.003Z,25.6200
2022-10-17T00:42:42.414Z,25.6200
2022-10-17T00:42:53.568Z,25.6100
2022-10-17T00:43:04.765Z,25.6100
2022-10-17T00:43:15.997Z,25.6100
2022-10-17T00:43:27.054Z,25.6200
2022-10-17T00:43:38.102Z,25.6100
2022-10-17T00:43:49.258Z,25.6100
2022-10-17T00:44:00.455Z,25.6000
2022-10-17T00:44:11.647Z,25.6000
2022-10-17T00:44:22.705Z,25.6000
2022-10-17T00:44:33.814Z,25.6000
2022-10-17T00:44:44.933Z,25.5900
2022-10-17T00:44:56.127Z,25.5900
2022-10-17T00:45:07.325Z,25.5900
2022-10-17T00:45:18.532Z,25.5900
2022-10-17T00:45:29.734Z,25.5900
2022-10-17T00:45:40.926Z,25.5800
2022-10-17T00:45:52.127Z,25.5800
2022-10-17T00:46:03.325Z,25.5900
2022-10-17T00:46:14.534Z,25.5900
2022-10-17T00:46:25.575Z,25.6000
2022-10-17T00:46:36.646Z,25.6000
2022-10-17T00:46:47.813Z,25.6000
2022-10-17T00:46:59.005Z,25.6000
2022-10-17T00:47:10.054Z,25.6000
2022-10-17T00:47:21.112Z,25.6000
2022-10-17T00:47:32.165Z,25.6000
2022-10-17T00:47:43.238Z,25.6000
2022-10-17T00:47:54.373Z,25.6000
2022-10-17T00:48:05.567Z,25.6000
2022-10-17T00:48:21.173Z,25.6000
2022-10-17T00:48:33.775Z,25.6000
2022-10-17T00:48:44.925Z,25.5800
2022-10-17T00:48:56.125Z,25.5800
2022-10-17T00:49:07.336Z,25.5900
2022-10-17T00:49:18.534Z,25.5900
2022-10-17T00:49:29.735Z,25.5900
2022-10-17T00:49:40.933Z,25.5900
2022-10-17T00:49:52.262Z,25.5900
2022-10-17T00:50:03.327Z,25.5900
2022-10-17T00:50:14.534Z,25.5900
2022-10-17T00:50:25.728Z,25.5900
2022-10-17T00:50:36.933Z,25.5900
2022-10-17T00:50:47.983Z,25.5900
2022-10-17T00:50:59.058Z,25.5900
2022-10-17T00:51:10.096Z,25.5900
2022-10-17T00:51:21.174Z,25.5900
2022-10-17T00:51:32.304Z,25.5900
2022-10-17T00:51:43.487Z,25.5900
2022-10-17T00:51:54.688Z,25.5900
2022-10-17T00:52:05.896Z,25.5900
2022-10-17T00:52:17.093Z,25.5900
2022-10-17T00:52:28.709Z,25.5900
2022-10-17T00:52:39.905Z,25.5900
2022-10-17T00:52:51.014Z,25.5800
2022-10-17T00:53:02.205Z,25.5900
2022-10-17T00:53:13.412Z,25.5900
2022-10-17T00:53:24.654Z,25.5900
2022-10-17T00:53:35.703Z,25.5900
2022-10-17T00:53:46.775Z,25.5900
2022-10-17T00:53:57.885Z,25.5900
2022-10-17T00:54:09.094Z,25.5800
2022-10-17T00:54:20.286Z,25.5800
2022-10-17T00:54:31.493Z,25.5800
2022-10-17T00:54:42.685Z,25.5800
2022-10-17T00:54:53.885Z,25.5800
2022-10-17T00:55:05.093Z,25.5800
2022-10-17T00:55:16.255Z,25.5800
2022-10-17T00:55:27.456Z,25.5700
2022-10-17T00:55:38.654Z,25.5700
2022-10-17T00:55:50.527Z,25.5700
2022-10-17T00:56:01.694Z,25.5700
2022-10-17T00:56:12.885Z,25.5700
2022-10-17T00:56:24.096Z,25.5700
2022-10-17T00:56:35.136Z,25.5700
2022-10-17T00:56:46.215Z,25.5700
2022-10-17T00:56:57.365Z,25.5800
2022-10-17T00:57:08.565Z,25.5800
2022-10-17T00:57:19.766Z,25.5800
2022-10-17T00:57:30.965Z,25.5800
2022-10-17T00:57:42.173Z,25.5800
2022-10-17T00:57:53.366Z,25.5700
2022-10-17T00:58:04.565Z,25.5700
2022-10-17T00:58:15.776Z,25.5700
2022-10-17T00:58:27.106Z,25.5700
2022-10-17T00:58:38.165Z,25.5700
2022-10-17T00:58:49.365Z,25.5700
2022-10-17T00:59:00.596Z,25.5800
2022-10-17T00:59:11.774Z,25.5800
2022-10-17T00:59:22.969Z,25.5800
2022-10-17T00:59:34.175Z,25.5800
2022-10-17T00:59:45.396Z,25.5800
2022-10-17T00:59:56.573Z,25.5800
2022-10-17T01:00:07.774Z,25.5800
2022-10-17T01:00:18.975Z,25.5800
2022-10-17T01:00:30.036Z,25.5700
2022-10-17T01:00:41.138Z,25.5700
2022-10-17T01:00:52.254Z,25.5700
2022-10-17T01:01:03.509Z,25.5700
2022-10-17T01:01:14.693Z,25.5700
2022-10-17T01:01:25.905Z,25.5700
2022-10-17T01:01:37.093Z,25.5700
2022-10-17T01:01:48.179Z,25.5800
2022-10-17T01:01:59.244Z,25.5800
2022-10-17T01:02:10.293Z,25.5800
2022-10-17T01:02:21.533Z,25.5800
2022-10-17T01:02:32.734Z,25.5800
2022-10-17T01:02:43.814Z,25.5800
2022-10-17T01:02:54.885Z,25.5800
2022-10-17T01:03:06.014Z,25.5800
2022-10-17T01:03:17.232Z,25.5800
2022-10-17T01:03:28.435Z,25.5800
2022-10-17T01:03:39.623Z,25.5800
2022-10-17T01:03:50.683Z,25.5800
2022-10-17T01:04:01.751Z,25.5800
2022-10-17T01:04:12.911Z,25.5800
2022-10-17T01:04:24.085Z,25.5800
2022-10-17T01:04:35.286Z,25.5800
2022-10-17T01:04:46.485Z,25.5800
2022-10-17T01:04:57.686Z,25.5800
2022-10-17T01:05:08.886Z,25.5800
2022-10-17T01:05:20.093Z,25.5800
2022-10-17T01:05:31.135Z,25.5700
2022-10-17T01:05:42.193Z,25.5700
2022-10-17T01:05:53.373Z,25.5700
2022-10-17T01:06:04.574Z,25.5700
2022-10-17T01:06:15.770Z,25.5700
2022-10-17T01:06:26.966Z,25.5700
2022-10-17T01:06:38.165Z,25.5700
2022-10-17T01:06:49.376Z,25.5700
2022-10-17T01:07:00.563Z,25.5700
2022-10-17T01:07:11.765Z,25.5700
2022-10-17T01:07:22.972Z,25.5700
2022-10-17T01:07:37.145Z,25.5800
2022-10-17T01:07:48.618Z,25.5800
2022-10-17T01:07:59.767Z,25.5600
2022-10-17T01:08:10.973Z,25.5700
2022-10-17T01:08:22.028Z,25.5700
2022-10-17T01:08:33.103Z,25.5700
2022-10-17T01:08:44.257Z,25.5800
2022-10-17T01:08:55.445Z,25.5800
2022-10-17T01:09:06.654Z,25.5800
2022-10-17T01:09:17.853Z,25.5700
2022-10-17T01:09:29.054Z,25.5700
2022-10-17T01:09:40.245Z,25.5700
2022-10-17T01:09:51.446Z,25.5700
2022-10-17T01:10:02.654Z,25.5700
2022-10-17T01:10:13.894Z,25.5700
2022-10-17T01:10:24.935Z,25.5700
2022-10-17T01:10:36.005Z,25.5700
2022-10-17T01:10:47.126Z,25.5700
2022-10-17T01:10:58.327Z,25.5700
2022-10-17T01:11:09.536Z,25.5700
2022-10-17T01:11:20.725Z,25.5700
2022-10-17T01:11:31.895Z,25.5600
2022-10-17T01:11:43.125Z,25.5600
2022-10-17T01:11:54.326Z,25.5600
2022-10-17T01:12:05.534Z,25.5600
2022-10-17T01:12:16.733Z,25.5600
2022-10-17T01:12:28.033Z,25.5500
2022-10-17T01:12:39.166Z,25.5500
2022-10-17T01:12:50.325Z,25.5500
2022-10-17T01:13:01.530Z,25.5600
2022-10-17T01:13:12.734Z,25.5600
2022-10-17T01:13:23.936Z,25.5600
2022-10-17T01:13:35.155Z,25.5600
2022-10-17T01:13:46.356Z,25.5600
2022-10-17T01:13:57.533Z,25.5600
2022-10-17T01:14:08.747Z,25.5600
2022-10-17T01:14:19.803Z,25.5600
2022-10-17T01:14:30.875Z,25.5600
2022-10-17T01:14:42.006Z,25.5600
2022-10-17T01:14:53.232Z,25.5600
2022-10-17T01:15:04.459Z,25.5600
2022-10-17T01:15:15.607Z,25.5600
2022-10-17T01:15:26.812Z,25.5600
2022-10-17T01:15:38.005Z,25.5600
2022-10-17T01:15:49.205Z,25.5500
2022-10-17T01:16:00.415Z,25.5500
2022-10-17T01:16:11.615Z,25.5500
2022-10-17T01:16:22.675Z,25.5600
2022-10-17T01:16:33.758Z,25.5600
2022-10-17T01:16:44.904Z,25.5600
2022-10-17T01:16:56.093Z,25.5500
2022-10-17T01:17:07.285Z,25.5500
2022-10-17T01:17:18.486Z,25.5500
2022-10-17T01:17:29.693Z,25.5500
2022-10-17T01:17:40.885Z,25.5500
2022-10-17T01:17:52.085Z,25.5500
2022-10-17T01:18:03.142Z,25.5500
2022-10-17T01:18:14.198Z,25.5500
2022-10-17T01:18:25.366Z,25.5500
2022-10-17T01:18:36.446Z,25.5500
2022-10-17T01:18:47.516Z,25.5500
2022-10-17T01:18:58.654Z,25.5500
2022-10-17T01:19:09.845Z,25.5400
2022-10-17T01:19:21.087Z,25.5400
2022-10-17T01:19:32.247Z,25.5400
2022-10-17T01:19:43.446Z,25.5300
2022-10-17T01:19:54.646Z,25.5400
2022-10-17T01:20:05.846Z,25.5300
2022-10-17T01:20:17.045Z,25.5300
2022-10-17T01:20:28.245Z,25.5300
2022-10-17T01:20:39.296Z,25.5300
2022-10-17T01:20:50.367Z,25.5300
2022-10-17T01:21:01.543Z,25.5300
2022-10-17T01:21:12.726Z,25.5300
2022-10-17T01:21:23.925Z,25.5300
2022-10-17T01:21:35.134Z,25.5300
2022-10-17T01:21:46.333Z,25.5300
2022-10-17T01:21:57.533Z,25.5300
2022-10-17T01:22:08.727Z,25.5300
2022-10-17T01:22:19.945Z,25.5300
2022-10-17T01:22:31.303Z,25.5300
2022-10-17T01:22:42.706Z,25.5400
2022-10-17T01:22:53.854Z,25.5400
2022-10-17T01:23:05.053Z,25.5500
2022-10-17T01:23:16.253Z,25.5500
2022-10-17T01:23:27.455Z,25.5500
2022-10-17T01:23:38.536Z,25.5500
2022-10-17T01:23:49.765Z,25.5400
2022-10-17T01:24:00.835Z,25.5400
2022-10-17T01:24:11.925Z,25.5400
2022-10-17T01:24:23.125Z,25.5400
2022-10-17T01:24:34.173Z,25.5400
2022-10-17T01:24:45.254Z,25.5400
2022-10-17T01:24:56.405Z,25.5400
2022-10-17T01:25:07.616Z,25.5400
2022-10-17T01:25:18.805Z,25.5400
2022-10-17T01:25:30.006Z,25.5400
2022-10-17T01:25:41.205Z,25.5400
2022-10-17T01:25:52.414Z,25.5300
2022-10-17T01:26:03.605Z,25.5300
2022-10-17T01:26:14.810Z,25.5300
2022-10-17T01:26:26.016Z,25.5300
2022-10-17T01:26:37.077Z,25.5300
2022-10-17T01:26:48.147Z,25.5300
2022-10-17T01:26:59.298Z,25.5400
2022-10-17T01:27:10.343Z,25.5300
2022-10-17T01:27:21.395Z,25.5300
2022-10-17T01:27:32.661Z,25.5400
2022-10-17T01:27:43.765Z,25.5400
2022-10-17T01:27:54.975Z,25.5400
2022-10-17T01:28:06.165Z,25.5400
2022-10-17T01:28:17.378Z,25.5400
2022-10-17T01:28:28.739Z,25.5300
2022-10-17T01:28:40.298Z,25.5300
2022-10-17T01:28:51.406Z,25.5300
2022-10-17T01:29:02.486Z,25.5300
2022-10-17T01:29:13.696Z,25.5300
2022-10-17T01:29:25.255Z,25.5300
2022-10-17T01:29:36.436Z,25.5300
2022-10-17T01:29:47.494Z,25.5300
2022-10-17T01:29:58.569Z,25.5300
2022-10-17T01:30:09.695Z,25.5300
2022-10-17T01:30:20.886Z,25.5300
2022-10-17T01:30:32.136Z,25.5300
2022-10-17T01:30:43.185Z,25.5300
2022-10-17T01:30:54.245Z,25.5300
2022-10-17T01:31:05.303Z,25.5300
2022-10-17T01:31:16.346Z,25.5300
2022-10-17T01:31:27.452Z,25.5300
2022-10-17T01:31:38.647Z,25.5300
2022-10-17T01:31:49.845Z,25.5400
2022-10-17T01:32:00.966Z,25.5400
2022-10-17T01:32:12.065Z,25.5400
2022-10-17T01:32:23.125Z,25.5400
2022-10-17T01:32:34.337Z,25.5400
2022-10-17T01:32:45.378Z,25.5400
2022-10-17T01:32:56.445Z,25.5400
2022-10-17T01:33:07.486Z,25.5400
2022-10-17T01:33:18.545Z,25.5400
2022-10-17T01:33:29.693Z,25.5400
2022-10-17T01:33:40.916Z,25.5400
2022-10-17T01:33:52.113Z,25.5400
2022-10-17T01:34:03.285Z,25.5400
2022-10-17T01:34:14.486Z,25.5400
2022-10-17T01:34:25.720Z,25.5400
2022-10-17T01:34:36.904Z,25.5400
2022-10-17T01:34:48.086Z,25.5400
2022-10-17T01:34:59.285Z,25.5300
2022-10-17T01:35:10.365Z,25.5300
2022-10-17T01:35:21.425Z,25.5300
2022-10-17T01:35:32.565Z,25.5300
2022-10-17T01:35:43.773Z,25.5400
2022-10-17T01:35:54.966Z,25.5400
2022-10-17T01:36:06.139Z,25.5400
2022-10-17T01:36:17.215Z,25.5400
2022-10-17T01:36:28.257Z,25.5400
2022-10-17T01:36:39.454Z,25.5300
2022-10-17T01:36:50.659Z,25.5300
2022-10-17T01:37:01.847Z,25.5300
2022-10-17T01:37:13.054Z,25.5300
2022-10-17T01:37:24.260Z,25.5300
2022-10-17T01:37:35.453Z,25.5300
2022-10-17T01:37:46.720Z,25.5300
2022-10-17T01:37:57.848Z,25.5300
2022-10-17T01:38:09.059Z,25.5300
2022-10-17T01:38:20.117Z,25.5300
2022-10-17T01:38:31.176Z,25.5300
2022-10-17T01:38:42.362Z,25.5300
2022-10-17T01:38:53.413Z,25.5300
2022-10-17T01:39:04.483Z,25.5200
2022-10-17T01:39:15.605Z,25.5200
2022-10-17T01:39:28.103Z,25.5200
2022-10-17T01:39:43.936Z,25.5100
2022-10-17T01:39:56.607Z,25.5000
2022-10-17T01:40:07.647Z,25.4800
2022-10-17T01:40:18.715Z,25.4900
2022-10-17T01:40:29.853Z,25.5000
2022-10-17T01:40:40.915Z,25.5100
2022-10-17T01:40:52.007Z,25.5100
2022-10-17T01:41:03.126Z,25.5100
2022-10-17T01:41:14.177Z,25.5100
2022-10-17T01:41:25.256Z,25.5100
2022-10-17T01:41:36.405Z,25.5100
2022-10-17T01:41:47.606Z,25.5100
2022-10-17T01:41:58.805Z,25.5100
2022-10-17T01:42:10.016Z,25.5100
2022-10-17T01:42:21.091Z,25.5100
2022-10-17T01:42:32.150Z,25.5200
2022-10-17T01:42:43.287Z,25.5200
2022-10-17T01:42:54.493Z,25.5300
2022-10-17T01:43:05.695Z,25.5300
2022-10-17T01:43:16.886Z,25.5300
2022-10-17T01:43:28.085Z,25.5300
2022-10-17T01:43:39.295Z,25.5300
2022-10-17T01:43:50.515Z,25.5300
2022-10-17T01:44:01.686Z,25.5300
2022-10-17T01:44:12.894Z,25.5300
2022-10-17T01:44:23.972Z,25.5300
2022-10-17T01:44:35.039Z,25.5300
2022-10-17T01:44:46.186Z,25.5400
2022-10-17T01:44:57.366Z,25.5400
2022-10-17T01:45:08.589Z,25.5400
2022-10-17T01:45:19.765Z,25.5400
2022-10-17T01:45:30.966Z,25.5400
2022-10-17T01:45:42.165Z,25.5400
2022-10-17T01:45:53.373Z,25.5500
2022-10-17T01:46:04.573Z,25.5500
2022-10-17T01:46:15.778Z,25.5500
2022-10-17T01:46:26.824Z,25.5500
2022-10-17T01:46:37.855Z,25.5500
2022-10-17T01:46:49.077Z,25.5500
2022-10-17T01:47:00.251Z,25.5500
2022-10-17T01:47:11.449Z,25.5500
2022-10-17T01:47:22.646Z,25.5500
2022-10-17T01:47:33.848Z,25.5500
2022-10-17T01:47:45.054Z,25.5400
2022-10-17T01:47:56.245Z,25.5400
2022-10-17T01:48:07.455Z,25.5400
2022-10-17T01:48:18.658Z,25.5400
2022-10-17T01:48:29.715Z,25.5500
2022-10-17T01:48:40.766Z,25.5500
2022-10-17T01:48:51.965Z,25.5500
2022-10-17T01:49:03.125Z,25.5500
2022-10-17T01:49:14.335Z,25.5500
2022-10-17T01:49:25.533Z,25.5500
2022-10-17T01:49:36.725Z,25.5500
2022-10-17T01:49:47.926Z,25.5500
2022-10-17T01:49:59.165Z,25.5500
2022-10-17T01:50:10.325Z,25.5500
2022-10-17T01:50:21.526Z,25.5500
2022-10-17T01:50:32.602Z,25.5400
2022-10-17T01:50:43.656Z,25.5400
2022-10-17T01:50:54.816Z,25.5400
2022-10-17T01:51:06.017Z,25.5400
2022-10-17T01:51:17.206Z,25.5400
2022-10-17T01:51:28.413Z,25.5300
2022-10-17T01:51:39.614Z,25.5300
2022-10-17T01:51:50.808Z,25.5300
2022-10-17T01:52:02.007Z,25.5200
2022-10-17T01:52:13.148Z,25.5200
2022-10-17T01:52:24.192Z,25.5200
2022-10-17T01:52:35.332Z,25.5200
2022-10-17T01:52:46.493Z,25.5100
2022-10-17T01:52:57.535Z,25.5100
2022-10-17T01:53:08.608Z,25.5100
2022-10-17T01:53:19.766Z,25.5100
2022-10-17T01:53:30.966Z,25.5100
2022-10-17T01:53:42.013Z,25.5100
2022-10-17T01:53:53.077Z,25.5000
2022-10-17T01:54:04.245Z,25.5000
2022-10-17T01:54:15.445Z,25.5000
2022-10-17T01:54:26.657Z,25.5000
2022-10-17T01:54:37.847Z,25.5100
2022-10-17T01:54:49.097Z,25.5100
2022-10-17T01:55:00.245Z,25.5000
2022-10-17T01:55:11.445Z,25.5000
2022-10-17T01:55:22.646Z,25.5000
2022-10-17T01:55:33.857Z,25.5000
2022-10-17T01:55:44.945Z,25.4900
2022-10-17T01:56:07.129Z,25.4900
2022-10-17T01:56:18.329Z,25.4900
2022-10-17T01:56:29.527Z,25.4900
2022-10-17T01:56:40.737Z,25.5000
2022-10-17T01:56:51.927Z,25.4900
2022-10-17T01:57:03.127Z,25.4900
2022-10-17T01:57:14.326Z,25.4900
2022-10-17T01:57:25.909Z,25.4900
2022-10-17T01:57:37.384Z,25.4900
2022-10-17T01:57:48.573Z,25.4800
2022-10-17T01:57:59.766Z,25.4800
2022-10-17T01:58:10.806Z,25.4800
2022-10-17T01:58:21.852Z,25.4800
2022-10-17T01:58:33.053Z,25.4800
2022-10-17T01:58:44.103Z,25.4800
2022-10-17T01:58:55.195Z,25.4800
2022-10-17T01:59:06.245Z,25.4800
2022-10-17T01:59:17.296Z,25.4800
2022-10-17T01:59:28.405Z,25.4800
2022-10-17T01:59:39.614Z,25.4900
2022-10-17T01:59:50.656Z,25.4900
2022-10-17T02:00:01.729Z,25.4800
2022-10-17T02:00:12.911Z,25.4900
2022-10-17T02:00:24.085Z,25.4900
2022-10-17T02:00:35.285Z,25.4900
2022-10-17T02:00:46.505Z,25.4900
2022-10-17T02:00:57.589Z,25.4900
2022-10-17T02:01:08.657Z,25.4900
2022-10-17T02:01:19.820Z,25.4900
2022-10-17T02:01:31.089Z,25.4900
2022-10-17T02:01:42.211Z,25.4900
2022-10-17T02:01:53.435Z,25.4900
2022-10-17T02:02:04.454Z,25.4900
2022-10-17T02:02:15.526Z,25.4900
2022-10-17T02:02:26.663Z,25.4900
2022-10-17T02:02:37.846Z,25.4900
2022-10-17T02:02:49.047Z,25.4900
2022-10-17T02:03:00.260Z,25.4900
2022-10-17T02:03:11.454Z,25.4900
2022-10-17T02:03:22.654Z,25.4900
2022-10-17T02:03:33.846Z,25.4900
2022-10-17T02:03:45.045Z,25.4900
2022-10-17T02:03:56.284Z,25.4900
2022-10-17T02:04:07.445Z,25.4900
2022-10-17T02:04:18.647Z,25.4900
2022-10-17T02:04:29.745Z,25.4900
2022-10-17T02:04:40.814Z,25.4900
2022-10-17T02:04:51.969Z,25.4900
2022-10-17T02:05:03.129Z,25.4900
2022-10-17T02:05:14.185Z,25.4900
2022-10-17T02:05:25.255Z,25.4900
2022-10-17T02:05:36.414Z,25.4900
2022-10-17T02:05:47.613Z,25.4900
2022-10-17T02:05:58.805Z,25.4900
2022-10-17T02:06:10.014Z,25.4900
2022-10-17T02:06:21.214Z,25.4900
2022-10-17T02:06:32.407Z,25.4900
2022-10-17T02:06:43.605Z,25.4900
2022-10-17T02:06:54.805Z,25.4800
2022-10-17T02:07:06.017Z,25.4800
2022-10-17T02:07:17.077Z,25.4800
2022-10-17T02:07:28.547Z,25.4800
2022-10-17T02:07:39.946Z,25.4800
2022-10-17T02:07:51.133Z,25.4700
2022-10-17T02:08:02.335Z,25.4800
2022-10-17T02:08:13.413Z,25.4800
2022-10-17T02:08:24.484Z,25.4800
2022-10-17T02:08:35.606Z,25.4800
2022-10-17T02:08:46.818Z,25.4800
2022-10-17T02:08:58.046Z,25.4700
2022-10-17T02:09:09.206Z,25.4700
2022-10-17T02:09:20.407Z,25.4700
2022-10-17T02:09:31.606Z,25.4600
2022-10-17T02:09:42.814Z,25.4600
2022-10-17T02:09:54.013Z,25.4600
2022-10-17T02:10:05.209Z,25.4600
2022-10-17T02:10:16.245Z,25.4500
2022-10-17T02:10:27.297Z,25.4500
2022-10-17T02:10:38.494Z,25.4600
2022-10-17T02:10:49.686Z,25.4600
2022-10-17T02:11:00.889Z,25.4600
2022-10-17T02:11:12.082Z,25.4700
2022-10-17T02:11:23.293Z,25.4700
2022-10-17T02:11:34.485Z,25.4700
2022-10-17T02:11:45.688Z,25.4700
2022-10-17T02:11:56.886Z,25.4700
2022-10-17T02:12:08.094Z,25.4700
2022-10-17T02:12:19.166Z,25.4700
2022-10-17T02:12:30.243Z,25.4700
2022-10-17T02:12:41.368Z,25.4700
2022-10-17T02:12:52.566Z,25.4700
2022-10-17T02:13:03.769Z,25.4800
2022-10-17T02:13:14.966Z,25.4800
2022-10-17T02:13:26.168Z,25.4800
2022-10-17T02:13:37.365Z,25.4800
2022-10-17T02:13:48.573Z,25.4800
2022-10-17T02:13:59.964Z,25.4700
2022-10-17T02:14:22.090Z,25.4700
2022-10-17T02:14:33.163Z,25.4700
2022-10-17T02:14:44.256Z,25.4700
2022-10-17T02:14:55.445Z,25.4700
2022-10-17T02:15:06.655Z,25.4700
2022-10-17T02:15:17.870Z,25.4700
2022-10-17T02:15:29.064Z,25.4700
2022-10-17T02:15:40.246Z,25.4600
2022-10-17T02:15:51.452Z,25.4600
2022-10-17T02:16:02.647Z,25.4600